Time;durP1;ratioP1;P1;durP2;ratioP2;P2;SDS_P1;SDS_P2;PMS_P1;PMS_P2;Temp;Humidity;BMP_temperature;BMP_pressure;BME280_temperature;BME280_humidity;BME280_pressure;Samples;Min_cycle;Max_cycle;Signal;HPM_P1;HPM_P2
2021/10/09 00:01:36;;;;;;;35.47;24.17;;;12.60;78.50;;;;;;5008903;28;20821;-41
2021/10/09 00:04:03;;;;;;;35.30;24.50;;;12.60;78.50;;;;;;5009653;28;20499;-42
2021/10/09 00:06:29;;;;;;;36.33;24.90;;;12.50;78.50;;;;;;5009788;28;20595;-41
2021/10/09 00:08:56;;;;;;;40.43;25.37;;;12.50;78.50;;;;;;5008883;28;20465;-41
2021/10/09 00:11:34;;;;;;;34.20;23.43;;;12.50;78.50;;;;;;5010015;28;20956;-41
2021/10/09 00:14:01;;;;;;;41.70;27.27;;;12.50;78.50;;;;;;5007445;28;20462;-41
2021/10/09 00:16:28;;;;;;;36.33;23.80;;;12.50;78.30;;;;;;5007661;28;20479;-41
2021/10/09 00:18:55;;;;;;;34.37;22.50;;;12.50;78.40;;;;;;5006919;28;20468;-41
2021/10/09 00:21:21;;;;;;;37.13;23.67;;;12.50;78.50;;;;;;4993780;28;20452;-41
2021/10/09 00:23:48;;;;;;;38.60;25.50;;;12.40;78.50;;;;;;5007236;28;20518;-41
2021/10/09 00:26:16;;;;;;;40.90;24.97;;;12.40;78.60;;;;;;4990977;28;20467;-41
2021/10/09 00:28:43;;;;;;;37.50;24.60;;;12.40;78.70;;;;;;5004307;28;20457;-41
2021/10/09 00:31:10;;;;;;;41.47;25.97;;;12.40;78.60;;;;;;5007239;28;20471;-41
2021/10/09 00:33:36;;;;;;;34.67;22.30;;;12.40;78.70;;;;;;5010821;28;20459;-41
2021/10/09 00:36:03;;;;;;;35.97;24.40;;;12.40;78.60;;;;;;5005647;28;20822;-41
2021/10/09 00:38:30;;;;;;;39.57;23.40;;;12.30;78.80;;;;;;5007664;28;20484;-41
2021/10/09 00:40:57;;;;;;;35.43;23.60;;;12.30;78.90;;;;;;5009009;28;20456;-42
2021/10/09 00:43:24;;;;;;;31.63;22.37;;;12.30;78.90;;;;;;5006620;28;20495;-41
2021/10/09 00:45:52;;;;;;;39.90;24.17;;;12.20;78.90;;;;;;5008239;28;20452;-41
2021/10/09 00:48:19;;;;;;;35.70;24.13;;;12.20;78.90;;;;;;5005450;28;20960;-41
2021/10/09 00:50:46;;;;;;;38.63;24.23;;;12.20;78.50;;;;;;5007047;28;20448;-41
2021/10/09 00:53:13;;;;;;;34.67;23.80;;;12.20;78.50;;;;;;5007336;28;20462;-41
2021/10/09 00:55:41;;;;;;;35.00;23.30;;;12.20;78.60;;;;;;5011257;28;20539;-41
2021/10/09 00:58:08;;;;;;;35.37;23.93;;;12.20;78.80;;;;;;4991189;28;20467;-41
2021/10/09 01:00:36;;;;;;;36.63;23.57;;;12.20;78.80;;;;;;5007941;28;20543;-41
2021/10/09 01:03:05;;;;;;;32.83;22.80;;;12.20;78.70;;;;;;4989760;28;20558;-41
2021/10/09 01:05:32;;;;;;;41.00;23.53;;;12.10;78.70;;;;;;5006898;28;20455;-41
2021/10/09 01:07:59;;;;;;;36.87;22.40;;;12.10;78.90;;;;;;5006603;28;20452;-42
2021/10/09 01:10:26;;;;;;;35.80;23.60;;;12.10;78.80;;;;;;5005985;28;20461;-41
2021/10/09 01:12:53;;;;;;;36.17;24.20;;;12.10;78.70;;;;;;4990680;28;20459;-41
2021/10/09 01:15:21;;;;;;;35.80;23.07;;;12.10;78.60;;;;;;4999684;28;20472;-41
2021/10/09 01:17:48;;;;;;;39.03;25.03;;;12.10;78.60;;;;;;4998554;28;20461;-41
2021/10/09 01:20:15;;;;;;;32.43;21.73;;;12.00;78.70;;;;;;5001910;28;20460;-41
2021/10/09 01:22:45;;;;;;;32.60;22.30;;;12.00;78.90;;;;;;5000179;28;20934;-41
2021/10/09 01:25:11;;;;;;;30.77;21.87;;;12.00;79.00;;;;;;5003668;28;20829;-41
2021/10/09 01:27:40;;;;;;;29.40;22.60;;;12.00;78.80;;;;;;5005906;28;20486;-41
2021/10/09 01:30:09;;;;;;;34.97;22.87;;;12.00;78.90;;;;;;4989881;28;20449;-41
2021/10/09 01:32:36;;;;;;;32.87;21.60;;;12.00;78.80;;;;;;5005850;28;21068;-41
2021/10/09 01:35:05;;;;;;;33.77;23.63;;;11.90;78.70;;;;;;5008332;28;20464;-41
2021/10/09 01:37:40;;;;;;;37.57;21.13;;;11.90;78.90;;;;;;5006576;28;20456;-41
2021/10/09 01:40:09;;;;;;;33.17;21.70;;;11.90;78.80;;;;;;4987785;28;20804;-41
2021/10/09 01:42:36;;;;;;;29.50;20.93;;;11.90;78.90;;;;;;5006793;28;20515;-41
2021/10/09 01:45:08;;;;;;;33.93;21.33;;;11.90;78.80;;;;;;5009487;28;20452;-41
2021/10/09 01:47:42;;;;;;;30.20;20.63;;;11.90;78.70;;;;;;5006450;28;20457;-41
2021/10/09 01:50:09;;;;;;;33.83;19.97;;;11.90;78.70;;;;;;4991019;28;20460;-41
2021/10/09 01:52:36;;;;;;;34.20;21.67;;;11.90;78.60;;;;;;5007541;28;20449;-41
2021/10/09 01:55:04;;;;;;;26.17;20.10;;;11.90;78.60;;;;;;5006035;28;20489;-41
2021/10/09 01:57:31;;;;;;;31.03;21.63;;;11.80;78.60;;;;;;5004745;28;20448;-41
2021/10/09 01:59:57;;;;;;;26.87;19.80;;;11.80;78.70;;;;;;5005857;28;20544;-41
2021/10/09 02:02:24;;;;;;;31.17;21.57;;;11.80;78.80;;;;;;5006031;28;20987;-41
2021/10/09 02:04:51;;;;;;;31.47;20.80;;;11.70;78.70;;;;;;5004821;28;20495;-42
2021/10/09 02:07:21;;;;;;;28.77;20.77;;;11.70;78.70;;;;;;4990527;28;20448;-41
2021/10/09 02:09:49;;;;;;;34.43;20.60;;;11.70;78.80;;;;;;5008684;28;20458;-41
2021/10/09 02:12:15;;;;;;;32.53;19.60;;;11.60;78.70;;;;;;5008394;28;20536;-41
2021/10/09 02:14:48;;;;;;;31.90;20.73;;;11.60;78.60;;;;;;5005342;28;20456;-41
2021/10/09 02:28:10;;;;;;;39.87;21.50;;;11.40;78.50;;;;;;5005673;28;20452;-41
2021/10/09 02:30:38;;;;;;;30.80;20.43;;;11.40;78.80;;;;;;5007076;28;20455;-41
2021/10/09 02:33:06;;;;;;;33.77;21.50;;;11.40;78.60;;;;;;5005209;28;20452;-41
2021/10/09 02:35:33;;;;;;;30.30;19.77;;;11.30;78.70;;;;;;5005335;28;20479;-41
2021/10/09 02:38:00;;;;;;;33.50;20.70;;;11.30;78.80;;;;;;5005862;28;20907;-41
2021/10/09 02:40:27;;;;;;;31.03;20.50;;;11.20;78.70;;;;;;5006183;28;20598;-41
2021/10/09 02:42:54;;;;;;;28.53;19.00;;;11.20;78.50;;;;;;5007125;28;20483;-41
2021/10/09 02:45:21;;;;;;;33.80;21.03;;;11.20;78.50;;;;;;5005884;28;20454;-41
2021/10/09 02:47:48;;;;;;;31.53;20.17;;;11.10;78.20;;;;;;5005799;28;20453;-41
2021/10/09 02:50:16;;;;;;;31.67;20.93;;;11.10;78.20;;;;;;5004238;28;20449;-41
2021/10/09 02:52:43;;;;;;;25.00;18.53;;;11.00;78.00;;;;;;5007634;28;20493;-42
2021/10/09 02:55:10;;;;;;;30.63;19.87;;;11.00;78.30;;;;;;5006457;28;20453;-41
2021/10/09 02:57:37;;;;;;;29.77;18.90;;;10.90;78.40;;;;;;5007134;28;21026;-41
2021/10/09 03:00:08;;;;;;;33.30;19.40;;;10.90;78.70;;;;;;5004916;28;20456;-41
2021/10/09 03:02:35;;;;;;;37.30;25.60;;;10.90;78.70;;;;;;5005379;28;20452;-42
2021/10/09 03:05:03;;;;;;;59.20;33.63;;;10.80;78.70;;;;;;5005032;28;20964;-41
2021/10/09 03:07:30;;;;;;;43.13;26.33;;;10.80;78.80;;;;;;5007408;28;20492;-41
2021/10/09 03:09:57;;;;;;;37.57;23.03;;;10.80;78.60;;;;;;5005178;28;20453;-41
2021/10/09 03:12:25;;;;;;;34.27;21.90;;;10.70;78.60;;;;;;5006569;28;20452;-41
2021/10/09 03:14:52;;;;;;;30.63;21.07;;;10.60;78.70;;;;;;5006755;28;20444;-41
2021/10/09 03:17:18;;;;;;;33.13;21.13;;;10.60;78.70;;;;;;5005978;28;20958;-41
2021/10/09 03:19:45;;;;;;;29.50;20.60;;;10.60;78.80;;;;;;5005170;28;20456;-41
2021/10/09 03:22:12;;;;;;;30.43;19.63;;;10.50;78.80;;;;;;5005537;28;20456;-41
2021/10/09 03:24:39;;;;;;;31.17;20.87;;;10.50;78.80;;;;;;5008375;28;20487;-41
2021/10/09 03:27:06;;;;;;;30.77;19.37;;;10.50;78.70;;;;;;5008191;28;20448;-41
2021/10/09 03:29:33;;;;;;;31.00;19.97;;;10.50;78.60;;;;;;5007404;28;20464;-41
2021/10/09 03:32:03;;;;;;;29.00;19.93;;;10.50;78.60;;;;;;5008538;28;20801;-41
2021/10/09 03:34:32;;;;;;;26.70;18.83;;;10.40;78.80;;;;;;5010675;28;20455;-41
2021/10/09 03:37:02;;;;;;;33.90;19.70;;;10.40;79.00;;;;;;4993746;28;20957;-41
2021/10/09 03:39:29;;;;;;;28.00;19.77;;;10.40;79.00;;;;;;5008647;28;20980;-41
2021/10/09 03:42:02;;;;;;;29.73;20.73;;;10.40;79.10;;;;;;5010698;28;20470;-41
2021/10/09 03:44:33;;;;;;;28.23;20.00;;;10.30;79.30;;;;;;5008373;28;20651;-41
2021/10/09 03:54:44;;;;;;;130.87;78.03;;;10.20;79.40;;;;;;5008639;28;20463;-42
2021/10/09 03:57:11;;;;;;;80.43;49.83;;;10.20;79.50;;;;;;5006657;28;20461;-41
2021/10/09 03:59:38;;;;;;;48.93;32.43;;;10.20;79.20;;;;;;4991681;28;20452;-41
2021/10/09 04:02:05;;;;;;;42.47;30.20;;;10.20;79.00;;;;;;4990375;28;20496;-41
2021/10/09 04:04:32;;;;;;;38.80;25.07;;;10.10;79.00;;;;;;5007887;28;20695;-42
2021/10/09 04:06:58;;;;;;;34.57;21.83;;;10.10;79.10;;;;;;5006268;28;20794;-41
2021/10/09 04:09:25;;;;;;;40.73;24.23;;;10.10;79.10;;;;;;5009601;28;20462;-41
2021/10/09 04:11:52;;;;;;;30.50;20.13;;;10.10;79.10;;;;;;4992486;28;20496;-41
2021/10/09 04:14:18;;;;;;;35.63;21.37;;;10.00;79.20;;;;;;5010077;28;20456;-41
2021/10/09 04:16:45;;;;;;;31.20;20.10;;;10.00;79.40;;;;;;5002704;28;20460;-41
2021/10/09 04:19:12;;;;;;;27.77;19.47;;;10.00;79.40;;;;;;5003534;28;20452;-41
2021/10/09 04:21:38;;;;;;;24.77;17.40;;;10.00;79.50;;;;;;5005086;28;20461;-41
2021/10/09 04:24:05;;;;;;;29.07;18.73;;;10.00;79.60;;;;;;5000169;28;20480;-41
2021/10/09 04:26:32;;;;;;;26.17;18.00;;;9.90;79.70;;;;;;5007788;28;20454;-41
2021/10/09 04:28:58;;;;;;;30.60;16.83;;;9.90;79.70;;;;;;4989082;28;20548;-41
2021/10/09 04:31:25;;;;;;;25.30;17.20;;;9.90;79.80;;;;;;5007545;28;20464;-41
2021/10/09 04:33:52;;;;;;;26.17;17.80;;;9.80;79.90;;;;;;5008836;28;20457;-41
2021/10/09 04:36:19;;;;;;;25.53;17.57;;;9.80;79.90;;;;;;5004885;28;20458;-41
2021/10/09 04:38:45;;;;;;;28.47;18.77;;;9.80;80.00;;;;;;5008592;28;20459;-41
2021/10/09 04:41:12;;;;;;;33.90;19.27;;;9.80;80.00;;;;;;5008131;28;20456;-41
2021/10/09 04:43:39;;;;;;;28.00;18.60;;;9.80;80.10;;;;;;5006956;28;20500;-41
2021/10/09 04:46:05;;;;;;;27.73;17.37;;;9.70;80.00;;;;;;5008407;28;20452;-41
2021/10/09 04:48:32;;;;;;;28.27;18.67;;;9.70;80.10;;;;;;5005525;28;20457;-41
2021/10/09 04:50:59;;;;;;;28.10;17.70;;;9.70;80.10;;;;;;5006815;28;20805;-41
2021/10/09 04:53:25;;;;;;;26.57;16.50;;;9.70;80.10;;;;;;5007596;28;20465;-41
2021/10/09 04:55:52;;;;;;;27.10;18.10;;;9.70;80.20;;;;;;4990029;28;20839;-41
2021/10/09 04:58:19;;;;;;;21.80;15.90;;;9.70;80.00;;;;;;5007970;28;20449;-41
2021/10/09 05:00:48;;;;;;;25.93;17.07;;;9.70;80.00;;;;;;5004431;28;20456;-41
2021/10/09 05:03:15;;;;;;;27.67;17.60;;;9.70;79.80;;;;;;5005312;28;20492;-42
2021/10/09 05:05:45;;;;;;;22.13;16.60;;;9.70;79.70;;;;;;5005358;28;20452;-41
2021/10/09 05:08:11;;;;;;;25.33;17.80;;;9.70;79.80;;;;;;5005180;28;20826;-41
2021/10/09 05:10:40;;;;;;;25.53;16.17;;;9.60;79.70;;;;;;5008179;28;20448;-42
2021/10/09 05:13:07;;;;;;;27.30;17.93;;;9.60;79.80;;;;;;5009846;28;20879;-41
2021/10/09 05:15:38;;;;;;;25.73;17.47;;;9.60;79.70;;;;;;5005228;28;20898;-41
2021/10/09 05:18:05;;;;;;;24.53;16.33;;;9.50;79.90;;;;;;4999531;28;22096;-41
2021/10/09 05:20:32;;;;;;;24.77;17.40;;;9.50;80.00;;;;;;5000352;28;20460;-41
2021/10/09 05:22:59;;;;;;;30.23;17.37;;;9.50;80.00;;;;;;5007865;28;20463;-41
2021/10/09 05:25:27;;;;;;;20.67;16.00;;;9.50;80.00;;;;;;5006511;28;20488;-42
2021/10/09 05:28:07;;;;;;;27.13;17.07;;;9.50;80.00;;;;;;4989737;28;20456;-41
2021/10/09 05:30:34;;;;;;;20.17;15.73;;;9.40;80.00;;;;;;5004282;28;20459;-41
2021/10/09 05:35:47;;;;;;;22.37;14.80;;;9.40;80.00;;;;;;5007045;28;20448;-41
2021/10/09 05:38:15;;;;;;;24.63;16.03;;;9.40;79.90;;;;;;5007553;28;20479;-41
2021/10/09 05:40:42;;;;;;;23.33;14.37;;;9.40;79.90;;;;;;4991844;28;20453;-42
2021/10/09 05:43:08;;;;;;;21.33;15.73;;;9.40;80.10;;;;;;5006360;28;20461;-42
2021/10/09 05:45:35;;;;;;;25.37;15.30;;;9.30;80.10;;;;;;5006510;28;20486;-41
2021/10/09 05:48:03;;;;;;;24.20;15.07;;;9.30;80.10;;;;;;5005609;28;20950;-41
2021/10/09 05:50:38;;;;;;;23.07;16.17;;;9.30;80.00;;;;;;5005798;28;20449;-42
2021/10/09 05:56:07;;;;;;;26.40;15.27;;;9.20;80.20;;;;;;5008039;28;20968;-42
2021/10/09 05:58:46;;;;;;;25.23;14.87;;;9.20;80.20;;;;;;5006027;28;20460;-41
2021/10/09 07:01:12;;;;;;;24.37;15.50;;;9.70;82.70;;;;;;5010102;28;20460;-41
2021/10/09 07:03:39;;;;;;;23.67;14.90;;;9.80;82.40;;;;;;5009086;28;20515;-42
2021/10/09 07:06:06;;;;;;;22.03;15.93;;;9.90;82.30;;;;;;5008707;28;20467;-41
2021/10/09 07:08:33;;;;;;;26.13;16.53;;;10.10;81.70;;;;;;5012366;28;20448;-41
2021/10/09 07:11:01;;;;;;;22.10;14.57;;;10.20;81.70;;;;;;5010953;28;20973;-41
2021/10/09 07:13:28;;;;;;;24.80;14.63;;;10.30;81.20;;;;;;5009489;28;20975;-41
2021/10/09 07:15:55;;;;;;;22.03;15.40;;;10.40;81.30;;;;;;5010421;28;20551;-41
2021/10/09 07:18:22;;;;;;;26.97;17.10;;;10.40;81.30;;;;;;5008243;28;20586;-41
2021/10/09 07:20:49;;;;;;;27.23;17.10;;;10.50;81.30;;;;;;5008956;28;20471;-41
2021/10/09 07:23:16;;;;;;;23.77;15.10;;;10.60;81.10;;;;;;5008483;28;20471;-41
2021/10/09 07:25:43;;;;;;;21.80;15.30;;;10.70;80.70;;;;;;5010382;28;20490;-41
2021/10/09 07:28:10;;;;;;;24.00;15.17;;;10.80;80.20;;;;;;5009599;28;20975;-41
2021/10/09 07:30:40;;;;;;;27.40;16.53;;;10.90;80.00;;;;;;5006540;28;20453;-41
2021/10/09 07:33:07;;;;;;;20.00;13.80;;;10.90;79.90;;;;;;5009249;28;20462;-41
2021/10/09 07:35:33;;;;;;;23.43;13.67;;;11.00;79.80;;;;;;5009500;28;20458;-41
2021/10/09 07:38:00;;;;;;;26.00;13.37;;;11.10;79.60;;;;;;5008759;28;20453;-41
2021/10/09 07:40:27;;;;;;;20.03;13.43;;;11.20;78.40;;;;;;5008793;28;20542;-41
2021/10/09 07:42:54;;;;;;;19.73;13.70;;;11.30;78.20;;;;;;5007706;28;20525;-41
2021/10/09 07:45:21;;;;;;;22.47;14.43;;;11.40;78.10;;;;;;4992243;28;20484;-41
2021/10/09 07:47:48;;;;;;;22.13;13.53;;;11.60;77.60;;;;;;5009593;28;20456;-41
2021/10/09 07:50:14;;;;;;;22.93;15.07;;;11.70;77.10;;;;;;5008598;28;20456;-41
2021/10/09 07:52:41;;;;;;;18.00;13.50;;;11.80;76.70;;;;;;5009819;28;20452;-42
2021/10/09 07:55:09;;;;;;;20.37;13.53;;;11.90;75.50;;;;;;5009081;28;20536;-41
2021/10/09 07:57:36;;;;;;;19.33;13.10;;;12.00;75.10;;;;;;5010600;28;20452;-41
2021/10/09 08:00:04;;;;;;;19.43;12.50;;;12.10;74.40;;;;;;5007484;28;20452;-41
2021/10/09 08:02:32;;;;;;;20.00;12.67;;;12.30;73.30;;;;;;5005949;28;21019;-41
2021/10/09 08:04:59;;;;;;;21.40;13.17;;;12.40;73.30;;;;;;5006325;28;20513;-41
2021/10/09 08:07:29;;;;;;;17.70;12.77;;;12.50;72.90;;;;;;5007731;28;20540;-41
2021/10/09 08:09:57;;;;;;;16.67;12.23;;;12.70;72.00;;;;;;4993252;28;20463;-42
2021/10/09 08:12:23;;;;;;;17.97;13.13;;;12.80;71.80;;;;;;4992818;28;20460;-42
2021/10/09 08:14:50;;;;;;;20.63;13.57;;;12.90;71.60;;;;;;5009619;28;20834;-42
2021/10/09 08:17:17;;;;;;;21.10;13.90;;;13.10;71.60;;;;;;5009250;28;20460;-41
2021/10/09 08:19:43;;;;;;;18.40;12.47;;;13.20;71.30;;;;;;5007934;28;20457;-42
2021/10/09 08:22:11;;;;;;;19.70;13.57;;;13.30;71.20;;;;;;5008672;28;20456;-42
2021/10/09 08:24:51;;;;;;;19.93;14.10;;;13.40;70.40;;;;;;5006025;28;20491;-41
2021/10/09 08:35:48;;;;;;;20.10;13.80;;;13.90;68.90;;;;;;5005231;28;20472;-41
2021/10/09 08:41:00;;;;;;;22.30;13.60;;;13.90;68.50;;;;;;5004405;28;20987;-41
2021/10/09 08:43:28;;;;;;;17.63;13.33;;;13.80;68.90;;;;;;5006420;28;20456;-41
2021/10/09 08:45:54;;;;;;;16.60;11.80;;;13.80;68.80;;;;;;5004994;28;20526;-41
2021/10/09 08:48:27;;;;;;;19.73;14.30;;;13.80;69.20;;;;;;5008098;28;20976;-42
2021/10/09 08:50:55;;;;;;;17.23;12.57;;;13.80;69.60;;;;;;5005917;28;20449;-42
2021/10/09 08:53:38;;;;;;;19.00;12.70;;;13.70;69.50;;;;;;5004263;28;20456;-42
2021/10/09 08:56:05;;;;;;;19.80;14.10;;;13.70;69.90;;;;;;4989686;28;20495;-42
2021/10/09 08:58:39;;;;;;;16.53;12.50;;;13.60;69.70;;;;;;5006173;28;21007;-42
2021/10/09 09:01:20;;;;;;;22.03;14.47;;;13.70;69.70;;;;;;5005447;28;20977;-42
2021/10/09 09:26:07;;;;;;;20.77;14.67;;;14.00;69.80;;;;;;5010453;28;20484;-41
2021/10/09 09:31:48;;;;;;;19.20;14.00;;;14.00;69.50;;;;;;5006537;28;20474;-42
2021/10/09 09:40:01;;;;;;;22.70;14.57;;;14.10;68.80;;;;;;4977901;28;20579;-42
2021/10/09 09:42:28;;;;;;;22.33;14.90;;;14.10;69.10;;;;;;4986272;28;20452;-42
2021/10/09 09:44:59;;;;;;;19.07;13.80;;;14.20;68.60;;;;;;5002358;28;21098;-42
2021/10/09 09:47:34;;;;;;;24.17;15.00;;;14.20;68.60;;;;;;5004416;28;20456;-42
2021/10/09 09:50:03;;;;;;;19.43;12.50;;;14.30;68.50;;;;;;5004706;28;20959;-42
2021/10/09 09:52:38;;;;;;;18.23;12.50;;;14.40;68.40;;;;;;5003937;28;20459;-42
2021/10/09 09:55:07;;;;;;;24.87;16.23;;;14.50;68.10;;;;;;5002749;28;20464;-42
2021/10/09 09:57:36;;;;;;;16.83;13.10;;;14.60;67.40;;;;;;4984249;28;20518;-42
2021/10/09 10:00:14;;;;;;;18.87;12.97;;;14.70;67.40;;;;;;5003245;28;20459;-42
2021/10/09 10:02:55;;;;;;;18.87;13.57;;;14.80;67.40;;;;;;5003926;28;20455;-42
2021/10/09 10:05:25;;;;;;;29.40;15.20;;;15.00;67.10;;;;;;5005498;28;21016;-42
2021/10/09 10:07:52;;;;;;;21.80;14.87;;;15.10;65.80;;;;;;5005822;28;20471;-42
2021/10/09 10:10:19;;;;;;;20.73;13.53;;;15.30;65.40;;;;;;5004185;28;20452;-41
2021/10/09 10:12:50;;;;;;;24.77;14.53;;;15.50;65.20;;;;;;4989874;28;20503;-42
2021/10/09 10:15:17;;;;;;;16.63;12.80;;;15.80;64.70;;;;;;5006395;28;20459;-41
2021/10/09 10:17:46;;;;;;;17.93;13.53;;;16.10;64.30;;;;;;5008143;28;20452;-42
2021/10/09 10:20:15;;;;;;;18.20;13.37;;;16.30;63.80;;;;;;5005825;28;20961;-41
2021/10/09 10:22:41;;;;;;;16.23;12.37;;;16.50;62.10;;;;;;5006365;28;20913;-41
2021/10/09 10:25:24;;;;;;;17.83;12.10;;;16.60;61.70;;;;;;5005213;28;20491;-41
2021/10/09 10:28:04;;;;;;;19.47;12.10;;;16.90;61.10;;;;;;5010947;28;20472;-42
2021/10/09 10:31:01;;;;;;;19.77;11.80;;;17.10;60.40;;;;;;5009530;28;20453;-42
2021/10/09 10:33:32;;;;;;;15.23;11.70;;;17.20;59.80;;;;;;5010588;28;21486;-41
2021/10/09 10:35:59;;;;;;;17.00;12.33;;;17.20;59.90;;;;;;5010804;28;20452;-42
2021/10/09 10:38:34;;;;;;;20.87;11.60;;;17.20;59.90;;;;;;5009731;28;20960;-41
2021/10/09 10:41:06;;;;;;;15.60;11.27;;;17.30;59.60;;;;;;5011308;28;20455;-42
2021/10/09 10:46:29;;;;;;;14.90;11.37;;;17.40;58.20;;;;;;5010308;28;20835;-41
2021/10/09 10:54:22;;;;;;;17.07;12.00;;;17.30;57.70;;;;;;5010606;28;20454;-42
2021/10/09 10:57:04;;;;;;;13.73;10.63;;;17.20;57.30;;;;;;5011463;28;20464;-42
2021/10/09 10:59:57;;;;;;;14.93;9.77;;;17.10;58.00;;;;;;5013158;28;20463;-42
2021/10/09 11:02:29;;;;;;;18.53;10.80;;;17.10;58.00;;;;;;5011129;28;20463;-42
2021/10/09 11:04:58;;;;;;;14.90;10.00;;;16.90;58.30;;;;;;4977615;28;20968;-42
2021/10/09 11:07:32;;;;;;;14.50;10.03;;;16.90;58.20;;;;;;5007951;28;20462;-42
2021/10/09 11:10:05;;;;;;;12.30;9.20;;;16.80;57.70;;;;;;5005869;28;20824;-42
2021/10/09 11:12:37;;;;;;;14.30;10.33;;;16.80;57.20;;;;;;5010154;28;20469;-42
2021/10/09 11:15:10;;;;;;;13.63;10.47;;;16.70;57.40;;;;;;5009486;28;21989;-41
2021/10/09 11:17:40;;;;;;;15.00;10.80;;;16.60;57.80;;;;;;5008814;28;20868;-41
2021/10/09 11:20:12;;;;;;;20.00;9.87;;;16.60;58.10;;;;;;4991980;28;20462;-41
2021/10/09 11:22:42;;;;;;;12.93;9.87;;;16.60;58.20;;;;;;5006200;28;20452;-41
2021/10/09 11:25:20;;;;;;;16.47;10.20;;;16.60;59.10;;;;;;4992778;28;20484;-41
2021/10/09 11:27:47;;;;;;;15.53;9.97;;;16.50;58.90;;;;;;5008850;28;20452;-41
2021/10/09 11:30:14;;;;;;;11.10;9.40;;;16.50;58.90;;;;;;5009377;28;20459;-42
2021/10/09 11:32:44;;;;;;;12.60;9.43;;;16.60;59.90;;;;;;5009218;28;20973;-41
2021/10/09 11:35:12;;;;;;;16.23;9.93;;;16.60;58.70;;;;;;5010500;28;20487;-42
2021/10/09 11:37:47;;;;;;;13.30;8.53;;;16.50;58.60;;;;;;5011651;28;20460;-41
2021/10/09 11:40:27;;;;;;;12.67;8.97;;;16.60;58.10;;;;;;5008188;28;21059;-41
2021/10/09 11:42:57;;;;;;;18.17;9.70;;;16.60;59.10;;;;;;5007914;28;20464;-41
2021/10/09 11:53:50;;;;;;;16.47;11.27;;;16.50;59.30;;;;;;5005666;28;20459;-41
2021/10/09 11:56:19;;;;;;;13.60;8.83;;;16.50;58.70;;;;;;5009075;28;20455;-42
2021/10/09 11:58:54;;;;;;;16.17;10.20;;;16.50;58.30;;;;;;5008900;28;20452;-42
2021/10/09 12:01:25;;;;;;;12.47;9.70;;;16.50;58.10;;;;;;4989421;28;20495;-42
2021/10/09 12:03:52;;;;;;;11.93;10.73;;;16.50;58.70;;;;;;5003581;28;20496;-42
2021/10/09 12:06:19;;;;;;;15.53;10.60;;;16.40;58.80;;;;;;5004805;28;20488;-42
2021/10/09 12:08:48;;;;;;;12.07;9.83;;;16.50;59.30;;;;;;5005072;28;22055;-42
2021/10/09 12:11:22;;;;;;;18.07;10.37;;;16.50;58.90;;;;;;5005963;28;20457;-42
2021/10/09 12:13:57;;;;;;;11.40;9.27;;;16.60;59.10;;;;;;5006955;28;20448;-42
2021/10/09 12:16:30;;;;;;;10.50;8.50;;;16.60;59.50;;;;;;5003544;28;20462;-42
2021/10/09 12:19:05;;;;;;;14.20;10.47;;;16.60;58.90;;;;;;4989183;28;20469;-42
2021/10/09 12:21:34;;;;;;;12.63;9.60;;;16.60;58.90;;;;;;5006936;28;20469;-42
2021/10/09 12:24:22;;;;;;;13.83;10.03;;;16.60;59.20;;;;;;5007969;28;20476;-42
2021/10/09 12:27:06;;;;;;;11.87;10.17;;;16.60;59.80;;;;;;5008657;28;20484;-43
2021/10/09 12:29:35;;;;;;;12.80;8.60;;;16.60;60.00;;;;;;5006010;28;20448;-42
2021/10/09 12:32:20;;;;;;;14.47;9.50;;;16.60;59.80;;;;;;5005376;28;20969;-42
2021/10/09 12:35:04;;;;;;;12.20;9.30;;;16.70;59.90;;;;;;5006870;28;20462;-43
2021/10/09 12:37:33;;;;;;;15.07;10.10;;;16.70;59.60;;;;;;5007690;28;20480;-42
2021/10/09 12:40:17;;;;;;;14.80;10.83;;;16.70;59.60;;;;;;5005323;28;20486;-42
2021/10/09 12:42:49;;;;;;;12.40;9.23;;;16.70;59.90;;;;;;5007337;28;20849;-43
2021/10/09 12:45:18;;;;;;;11.80;9.10;;;16.80;60.70;;;;;;5007555;28;20460;-42
2021/10/09 12:47:55;;;;;;;12.50;9.03;;;16.80;59.90;;;;;;5005994;28;20534;-43
2021/10/09 12:50:22;;;;;;;12.00;8.40;;;16.80;60.00;;;;;;5007997;28;20468;-42
2021/10/09 12:52:49;;;;;;;14.43;9.57;;;16.90;59.60;;;;;;5009363;28;20672;-42
2021/10/09 12:55:20;;;;;;;13.93;8.93;;;16.90;58.30;;;;;;5007830;28;20450;-42
2021/10/09 12:57:49;;;;;;;11.93;8.63;;;16.90;58.10;;;;;;5007849;28;20479;-42
2021/10/09 13:00:21;;;;;;;12.40;9.80;;;16.80;58.40;;;;;;4991680;28;20463;-42
2021/10/09 13:02:51;;;;;;;13.83;7.87;;;16.80;58.70;;;;;;5006267;28;20459;-43
2021/10/09 13:05:20;;;;;;;10.17;7.83;;;16.90;59.70;;;;;;5005841;28;20445;-43
2021/10/09 13:07:47;;;;;;;13.53;9.07;;;16.90;59.30;;;;;;5004083;28;20463;-43
2021/10/09 13:10:14;;;;;;;17.50;9.60;;;16.90;58.60;;;;;;5009691;28;20449;-43
2021/10/09 13:12:41;;;;;;;10.17;7.53;;;16.90;58.30;;;;;;5008574;28;20466;-43
2021/10/09 13:15:08;;;;;;;11.27;9.03;;;17.00;58.70;;;;;;5008988;28;20444;-43
2021/10/09 13:17:35;;;;;;;10.20;9.10;;;17.00;58.20;;;;;;4990584;28;20821;-43
2021/10/09 13:20:03;;;;;;;10.43;8.40;;;17.00;58.30;;;;;;5004249;28;20965;-43
2021/10/09 13:22:30;;;;;;;11.53;8.43;;;17.10;60.10;;;;;;5006686;28;20456;-43
2021/10/09 13:24:57;;;;;;;12.13;8.60;;;17.10;58.10;;;;;;5007666;28;20471;-43
2021/10/09 13:27:24;;;;;;;11.40;7.77;;;17.10;58.20;;;;;;5007369;28;20484;-43
2021/10/09 13:29:50;;;;;;;8.10;7.20;;;17.00;58.40;;;;;;5008574;28;20454;-42
2021/10/09 13:32:26;;;;;;;13.07;8.47;;;17.10;57.40;;;;;;5003356;28;20524;-42
2021/10/09 13:34:52;;;;;;;12.20;8.80;;;17.10;57.90;;;;;;5003999;28;20448;-42
2021/10/09 13:37:21;;;;;;;9.47;8.00;;;17.10;57.60;;;;;;4989052;28;20656;-43
2021/10/09 13:39:49;;;;;;;9.93;8.20;;;17.10;56.70;;;;;;5003823;28;20464;-43
2021/10/09 13:42:16;;;;;;;10.93;8.20;;;17.10;56.80;;;;;;5005922;28;20452;-43
2021/10/09 13:44:43;;;;;;;14.57;7.97;;;17.10;56.40;;;;;;5004696;28;20460;-43
2021/10/09 13:47:10;;;;;;;12.07;7.87;;;17.20;56.50;;;;;;5006103;28;20476;-43
2021/10/09 13:49:37;;;;;;;9.43;7.10;;;17.20;56.20;;;;;;5007962;28;20821;-43
2021/10/09 13:52:04;;;;;;;8.47;6.53;;;17.20;56.20;;;;;;4990467;28;20468;-43
2021/10/09 13:54:31;;;;;;;8.10;6.90;;;17.30;56.30;;;;;;5008137;28;20445;-43
2021/10/09 13:56:58;;;;;;;7.93;6.27;;;17.30;54.80;;;;;;5005139;28;20451;-43
2021/10/09 13:59:25;;;;;;;11.03;8.63;;;17.40;54.30;;;;;;5003302;28;20499;-43
2021/10/09 14:01:52;;;;;;;8.17;6.47;;;17.40;54.40;;;;;;5003504;28;20813;-43
2021/10/09 14:04:19;;;;;;;9.87;7.30;;;17.40;54.40;;;;;;5003143;28;21034;-43
2021/10/09 14:06:45;;;;;;;8.10;6.70;;;17.40;54.30;;;;;;4987640;28;20488;-43
2021/10/09 14:09:12;;;;;;;10.43;9.40;;;17.40;54.50;;;;;;5005349;28;20456;-43
2021/10/09 14:11:39;;;;;;;11.70;7.20;;;17.40;55.10;;;;;;5007520;28;20543;-43
2021/10/09 14:14:06;;;;;;;10.57;6.63;;;17.40;55.10;;;;;;5004855;28;20938;-43
2021/10/09 14:16:33;;;;;;;12.63;6.47;;;17.50;54.60;;;;;;5008004;28;20979;-43
2021/10/09 14:19:00;;;;;;;6.53;5.93;;;17.50;54.50;;;;;;5008590;28;20510;-43
2021/10/09 14:21:27;;;;;;;9.27;6.43;;;17.50;53.80;;;;;;5005188;28;20464;-43
2021/10/09 14:23:53;;;;;;;7.43;6.00;;;17.60;53.70;;;;;;5006669;28;21032;-43
2021/10/09 14:26:20;;;;;;;6.70;6.00;;;17.60;53.40;;;;;;5005332;28;20492;-43
2021/10/09 14:28:47;;;;;;;8.80;6.43;;;17.60;53.10;;;;;;5004567;28;20455;-43
2021/10/09 14:31:14;;;;;;;8.73;6.03;;;17.60;53.30;;;;;;5004291;28;20475;-43
2021/10/09 14:33:41;;;;;;;8.67;5.70;;;17.70;53.70;;;;;;5008618;28;20452;-43
2021/10/09 14:36:08;;;;;;;8.10;5.97;;;17.70;53.50;;;;;;5006571;28;20444;-43
2021/10/09 14:38:34;;;;;;;10.10;6.10;;;17.80;53.00;;;;;;5006425;28;20452;-43
2021/10/09 14:41:01;;;;;;;7.93;5.47;;;17.80;52.40;;;;;;5007030;28;20479;-43
2021/10/09 14:43:28;;;;;;;8.47;6.00;;;17.80;52.20;;;;;;5005946;28;21012;-43
2021/10/09 14:46:03;;;;;;;11.50;6.97;;;17.80;52.90;;;;;;5006790;28;20511;-42
2021/10/09 14:48:36;;;;;;;9.67;5.83;;;17.90;52.10;;;;;;5004014;28;20455;-43
2021/10/09 15:18:36;;;;;;;5.93;5.33;;;18.00;53.00;;;;;;5007330;28;20448;-42
2021/10/09 15:21:02;;;;;;;6.40;5.80;;;18.00;52.20;;;;;;5007760;28;20448;-42
2021/10/09 15:23:29;;;;;;;6.70;6.00;;;18.00;52.40;;;;;;5009047;28;20979;-43
2021/10/09 15:25:56;;;;;;;6.30;5.57;;;18.00;53.70;;;;;;5009854;28;20975;-42
2021/10/09 15:28:23;;;;;;;7.20;5.70;;;17.90;53.80;;;;;;5010612;28;20459;-42
2021/10/09 15:31:11;;;;;;;6.37;5.50;;;17.90;53.70;;;;;;5007063;28;20483;-42